الصفحة الرئيسية
METAR-TAF:

METAR-TAF

مطار :

مطار أثينا الدولي

أثينا, اليونان

دائرة عرض: 37-56N, خط طول: 023-56E, ارتفاع: 94 متر

مراقبة الطقس الحالي

تاريخ ووقت الإصدار 19 دقيقة قبل الساعة 23:20UTC
ريح 7 عقدة من الشمال
درجة الحرارة 17°درجة مئوية
الرطوبة 72%
ضغط 1017 hPa
الرؤية 10 كم أو أكثر
غيوم قليلة على ارتفاع 3000 قدم

METAR: LGAV 172320Z 01007KT 9999 FEW030 17/12 Q1017 NOSIG

زمن: 02:39 (23:39 UTC)

توقعات

تاريخ ووقت الإصدار 39 دقيقة قبل الساعة 23:00UTC
التوقعات صالحة من18 الساعة 00 UTC إلى 18 الساعة 24 UTC
ريح 15 عقدة من الشمال/الشمال الشرقي
الرؤية 10 كم أو أكثر
غيوم قليلة على ارتفاع 3000 قدم
مؤقت
من 18 الساعة 06 UTC إلى 18 الساعة 15 UTC
غيوم متفرقة على ارتفاع 2000 قدم

TAF: LGAV 172300Z 1800/1824 02015KT 9999 FEW030 TEMPO 1806/1815 SCT020

أرصاد الطقس والتوقعات من أكثر من 4000 مطار (تقارير الطقس للمطار METAR والتنبؤ بالطقس بالمطارTAF).

المحطات المتاحة هي النقط الصفراء والحمراء على الخريطة.

حرك المؤشر فوق النقطة لمعرفة اسم المحطة.

ثم انقر لمعرفة أرصاد وتوقعات الطقس.

لتغيير الخارطة: اضغط على الأزرار الخضراء مع رمز الصليب الأسود للتكبير. على الزر الأخضر مع شرطة للتصغير، أو على الأسهم الخضراء للخرائط المجاورة.


METAR-TAF: